createdAt,value
2023-05-11T00:01:25.100Z,17.58
2023-05-11T00:03:52.370Z,18.25
2023-05-11T00:06:19.578Z,17.08
2023-05-11T00:08:46.828Z,17.80
2023-05-11T00:11:13.855Z,17.65
2023-05-11T00:13:41.144Z,17.65
2023-05-11T00:16:08.363Z,18.70
2023-05-11T00:18:35.763Z,18.40
2023-05-11T00:21:02.993Z,18.33
2023-05-11T00:23:30.201Z,17.80
2023-05-11T00:25:57.336Z,18.60
2023-05-11T00:28:24.530Z,18.13
2023-05-11T00:30:57.516Z,19.13
2023-05-11T00:33:25.012Z,19.00
2023-05-11T00:35:52.504Z,17.77
2023-05-11T00:38:19.983Z,18.15
2023-05-11T00:40:49.057Z,18.23
2023-05-11T00:43:16.319Z,18.48
2023-05-11T00:45:45.737Z,18.88
2023-05-11T00:48:13.103Z,19.65
2023-05-11T00:50:40.205Z,19.00
2023-05-11T00:53:07.402Z,19.33
2023-05-11T00:55:34.684Z,19.90
2023-05-11T00:58:05.531Z,19.90
2023-05-11T01:00:32.882Z,19.55
2023-05-11T01:03:01.752Z,19.80
2023-05-11T01:06:11.979Z,19.48
2023-05-11T01:08:57.391Z,19.17
2023-05-11T01:11:28.677Z,19.75
2023-05-11T01:14:25.685Z,18.75
2023-05-11T01:19:35.755Z,19.52
2023-05-11T01:22:29.092Z,19.95
2023-05-11T01:25:22.369Z,19.38
2023-05-11T01:28:10.991Z,20.10
2023-05-11T01:30:55.331Z,19.27
2023-05-11T01:33:32.613Z,18.55
2023-05-11T01:36:12.816Z,20.13
2023-05-11T01:38:42.568Z,20.42
2023-05-11T01:41:17.954Z,20.02
2023-05-11T01:43:58.279Z,19.67
2023-05-11T01:46:32.861Z,19.50
2023-05-11T01:49:03.534Z,19.60
2023-05-11T01:51:38.843Z,18.55
2023-05-11T01:54:09.485Z,18.35
2023-05-11T01:56:38.705Z,18.02
2023-05-11T01:59:06.556Z,18.05
2023-05-11T02:01:36.621Z,17.88
2023-05-11T02:04:06.017Z,17.88
2023-05-11T02:06:35.822Z,17.88
2023-05-11T02:09:03.442Z,18.50
2023-05-11T02:11:34.360Z,18.27
2023-05-11T02:14:03.255Z,18.67
2023-05-11T02:16:32.615Z,17.85
2023-05-11T02:19:00.611Z,18.13
2023-05-11T02:21:29.737Z,18.23
2023-05-11T02:23:57.895Z,17.85
2023-05-11T02:26:25.665Z,17.45
2023-05-11T02:28:52.677Z,18.65
2023-05-11T02:31:26.047Z,18.15
2023-05-11T02:33:57.323Z,18.08
2023-05-11T02:36:28.787Z,17.88
2023-05-11T02:39:06.214Z,18.13
2023-05-11T02:41:43.589Z,19.13
2023-05-11T02:44:16.004Z,17.98
2023-05-11T02:46:47.694Z,19.02
2023-05-11T02:49:15.679Z,19.00
2023-05-11T02:51:45.281Z,18.90
2023-05-11T02:54:14.997Z,19.75
2023-05-11T02:56:47.599Z,18.55
2023-05-11T02:59:15.624Z,18.90
2023-05-11T03:01:43.745Z,20.00
2023-05-11T03:04:11.567Z,18.98
2023-05-11T03:06:38.874Z,18.17
2023-05-11T03:09:10.166Z,18.17
2023-05-11T03:11:43.350Z,19.15
2023-05-11T03:14:12.840Z,18.58
2023-05-11T03:16:42.077Z,20.00
2023-05-11T03:19:10.150Z,20.33
2023-05-11T03:21:38.900Z,20.88
2023-05-11T03:24:08.046Z,22.85
2023-05-11T03:26:36.390Z,23.33
2023-05-11T03:29:04.274Z,22.50
2023-05-11T03:31:31.555Z,24.27
2023-05-11T03:34:00.223Z,24.10
2023-05-11T03:36:29.740Z,23.92
2023-05-11T03:38:58.682Z,24.23
2023-05-11T03:41:33.894Z,25.77
2023-05-11T03:44:05.971Z,24.55
2023-05-11T03:46:38.114Z,26.73
2023-05-11T03:49:08.114Z,26.48
2023-05-11T03:51:36.395Z,26.20
2023-05-11T03:54:03.742Z,27.65
2023-05-11T03:56:30.952Z,27.80
2023-05-11T03:58:58.371Z,28.73
2023-05-11T04:01:26.490Z,29.23
2023-05-11T04:03:54.005Z,28.42
2023-05-11T04:06:23.123Z,28.77
2023-05-11T04:08:58.739Z,28.15
2023-05-11T04:11:27.648Z,28.58
2023-05-11T04:13:55.246Z,29.08
2023-05-11T04:16:22.450Z,29.10
2023-05-11T04:18:49.651Z,30.65
2023-05-11T04:21:16.747Z,29.75
2023-05-11T04:23:43.782Z,29.58
2023-05-11T04:26:10.903Z,31.25
2023-05-11T04:28:37.935Z,29.77
2023-05-11T04:31:04.988Z,30.48
2023-05-11T04:33:32.039Z,30.48
2023-05-11T04:35:59.348Z,30.98
2023-05-11T04:38:26.715Z,31.05
2023-05-11T04:40:54.200Z,32.70
2023-05-11T04:43:22.721Z,31.58
2023-05-11T04:45:52.965Z,31.45
2023-05-11T04:48:24.521Z,32.53
2023-05-11T04:50:54.744Z,33.30
2023-05-11T04:53:24.248Z,33.90
2023-05-11T04:55:51.827Z,35.00
2023-05-11T04:58:19.006Z,33.80
2023-05-11T05:00:46.023Z,34.78
2023-05-11T05:03:13.154Z,35.22
2023-05-11T05:05:40.218Z,36.72
2023-05-11T05:08:07.511Z,36.55
2023-05-11T05:10:34.857Z,36.47
2023-05-11T05:13:01.839Z,37.97
2023-05-11T05:15:30.396Z,35.80
2023-05-11T05:17:58.683Z,34.40
2023-05-11T05:20:26.173Z,35.20
2023-05-11T05:22:55.129Z,34.53
2023-05-11T05:25:22.303Z,31.45
2023-05-11T05:27:49.862Z,29.58
2023-05-11T05:30:19.842Z,26.83
2023-05-11T05:32:48.133Z,25.48
2023-05-11T05:35:15.654Z,25.60
2023-05-11T05:37:43.654Z,24.15
2023-05-11T05:40:11.415Z,21.63
2023-05-11T05:42:44.892Z,20.27
2023-05-11T05:45:15.833Z,19.67
2023-05-11T05:47:43.356Z,20.00
2023-05-11T05:50:11.757Z,20.00
2023-05-11T05:52:40.892Z,17.55
2023-05-11T05:55:08.793Z,17.27
2023-05-11T05:57:36.291Z,18.30
2023-05-11T06:00:05.281Z,17.45
2023-05-11T06:02:40.028Z,16.85
2023-05-11T06:05:09.704Z,16.63
2023-05-11T06:07:37.806Z,16.02
2023-05-11T06:10:06.494Z,16.13
2023-05-11T06:12:33.584Z,16.00
2023-05-11T06:15:01.531Z,14.88
2023-05-11T06:17:30.204Z,15.88
2023-05-11T06:19:57.370Z,15.10
2023-05-11T06:22:27.720Z,14.68
2023-05-11T06:24:54.814Z,14.75
2023-05-11T06:27:22.302Z,14.82
2023-05-11T06:29:52.239Z,14.85
2023-05-11T06:32:19.784Z,15.18
2023-05-11T06:34:46.962Z,14.90
2023-05-11T06:37:20.406Z,15.75
2023-05-11T06:39:49.921Z,15.20
2023-05-11T06:42:17.476Z,15.25
2023-05-11T06:44:44.519Z,15.57
2023-05-11T06:47:11.716Z,15.40
2023-05-11T06:49:39.347Z,15.88
2023-05-11T06:52:06.475Z,15.50
2023-05-11T06:54:34.061Z,15.68
2023-05-11T06:57:03.589Z,15.25
2023-05-11T06:59:30.949Z,15.05
2023-05-11T07:01:58.179Z,15.05
2023-05-11T07:04:25.414Z,15.00
2023-05-11T07:06:53.094Z,15.30
2023-05-11T07:09:20.475Z,15.82
2023-05-11T07:11:47.520Z,15.85
2023-05-11T07:14:14.641Z,15.15
2023-05-11T07:16:42.161Z,16.77
2023-05-11T07:19:09.928Z,16.48
2023-05-11T07:21:37.177Z,16.65
2023-05-11T07:24:04.616Z,16.98
2023-05-11T07:26:32.007Z,15.90
2023-05-11T07:28:59.086Z,14.73
2023-05-11T07:31:26.244Z,16.33
2023-05-11T07:33:53.439Z,16.30
2023-05-11T07:36:20.497Z,16.88
2023-05-11T07:38:47.548Z,16.83
2023-05-11T07:41:14.610Z,17.08
2023-05-11T07:43:41.866Z,16.45
2023-05-11T07:46:09.063Z,16.73
2023-05-11T07:48:36.644Z,14.10
2023-05-11T07:51:03.763Z,14.70
2023-05-11T07:53:31.419Z,14.73
2023-05-11T07:55:59.692Z,13.15
2023-05-11T07:58:26.906Z,12.93
2023-05-11T08:00:54.118Z,12.07
2023-05-11T08:03:21.484Z,12.65
2023-05-11T08:05:49.066Z,12.60
2023-05-11T08:08:16.426Z,12.32
2023-05-11T08:10:43.599Z,11.80
2023-05-11T08:13:11.010Z,9.93
2023-05-11T08:15:38.260Z,10.07
2023-05-11T08:18:06.308Z,9.77
2023-05-11T08:20:33.678Z,9.60
2023-05-11T08:23:00.742Z,9.23
2023-05-11T08:25:28.035Z,8.93
2023-05-11T08:27:55.294Z,8.20
2023-05-11T08:30:22.535Z,8.93
2023-05-11T08:32:57.654Z,7.72
2023-05-11T08:35:26.011Z,7.65
2023-05-11T08:37:53.105Z,6.47
2023-05-11T08:40:21.796Z,5.63
2023-05-11T08:42:53.190Z,5.70
2023-05-11T08:45:22.690Z,5.78
2023-05-11T08:47:50.088Z,5.28
2023-05-11T08:50:17.436Z,4.80
2023-05-11T08:52:44.992Z,3.88
2023-05-11T08:55:12.808Z,3.50
2023-05-11T08:57:41.344Z,3.88
2023-05-11T09:00:09.137Z,3.38
2023-05-11T09:02:36.719Z,2.85
2023-05-11T09:05:04.600Z,2.35
2023-05-11T09:07:35.239Z,2.20
2023-05-11T09:10:03.482Z,2.50
2023-05-11T09:12:31.098Z,2.72
2023-05-11T09:15:02.058Z,2.72
2023-05-11T09:17:29.566Z,2.95
2023-05-11T09:20:05.633Z,2.80
2023-05-11T09:22:36.412Z,2.45
2023-05-11T09:25:04.870Z,2.00
2023-05-11T09:27:32.415Z,2.00
2023-05-11T09:32:49.809Z,1.60
2023-05-11T09:35:34.486Z,1.00
2023-05-11T09:38:13.119Z,1.10
2023-05-11T09:40:53.185Z,1.38
2023-05-11T09:43:25.193Z,1.80
2023-05-11T09:45:58.724Z,1.83
2023-05-11T09:48:31.870Z,1.80
2023-05-11T09:51:03.724Z,1.90
2023-05-11T09:53:44.737Z,2.08
2023-05-11T09:56:15.886Z,2.00
2023-05-11T09:58:51.353Z,2.53
2023-05-11T10:01:29.613Z,2.38
2023-05-11T10:04:06.088Z,2.15
2023-05-11T10:06:55.318Z,1.90
2023-05-11T10:09:27.227Z,2.45
2023-05-11T10:11:55.550Z,3.15
2023-05-11T10:14:24.839Z,4.20
2023-05-11T10:16:53.896Z,4.63
2023-05-11T10:19:21.365Z,4.30
2023-05-11T10:21:48.664Z,4.50
2023-05-11T10:24:17.199Z,4.40
2023-05-11T10:26:46.063Z,4.30
2023-05-11T10:29:14.113Z,4.50
2023-05-11T10:31:41.984Z,5.28
2023-05-11T10:34:12.009Z,6.10
2023-05-11T10:36:39.479Z,6.32
2023-05-11T10:39:06.481Z,5.93
2023-05-11T10:41:48.908Z,6.78
2023-05-11T10:45:10.838Z,6.55
2023-05-11T10:48:34.264Z,6.35
2023-05-11T10:51:25.908Z,6.70
2023-05-11T10:54:20.740Z,8.20
2023-05-11T10:56:47.644Z,8.18
2023-05-11T11:00:10.760Z,9.05
2023-05-11T11:02:38.192Z,9.85
2023-05-11T11:05:09.470Z,9.98
2023-05-11T11:08:00.074Z,10.23
2023-05-11T11:10:33.613Z,10.88
2023-05-11T11:13:09.983Z,10.07
2023-05-11T11:15:58.992Z,10.80
2023-05-11T11:18:31.159Z,9.45
2023-05-11T11:21:01.085Z,9.73
2023-05-11T11:23:54.716Z,9.88
2023-05-11T11:26:49.294Z,9.18
2023-05-11T11:29:16.821Z,9.35
2023-05-11T11:31:44.035Z,10.00
2023-05-11T11:34:29.770Z,9.57
2023-05-11T11:37:00.972Z,10.40
2023-05-11T11:39:31.087Z,10.75
2023-05-11T11:42:16.061Z,10.57
2023-05-11T11:44:44.930Z,10.93
2023-05-11T11:47:16.369Z,10.90
2023-05-11T11:49:54.621Z,11.15
2023-05-11T11:52:31.230Z,11.77
2023-05-11T11:55:00.650Z,11.95
2023-05-11T11:57:33.749Z,11.73
2023-05-11T12:00:06.847Z,12.98
2023-05-11T12:02:45.646Z,11.45
2023-05-11T12:05:21.405Z,10.13
2023-05-11T12:07:52.114Z,11.40
2023-05-11T12:10:22.246Z,10.85
2023-05-11T12:12:55.016Z,10.60
2023-05-11T12:15:26.470Z,9.02
2023-05-11T12:17:54.060Z,10.07
2023-05-11T12:20:21.973Z,9.27
2023-05-11T12:22:49.649Z,8.63
2023-05-11T12:25:19.000Z,8.15
2023-05-11T12:28:03.073Z,8.35
2023-05-11T12:30:33.577Z,7.00
2023-05-11T12:33:04.372Z,6.85
2023-05-11T12:35:34.396Z,6.57
2023-05-11T12:38:05.057Z,7.82
2023-05-11T12:40:32.298Z,7.40
2023-05-11T12:43:01.049Z,6.30
2023-05-11T12:45:29.237Z,6.40
2023-05-11T12:47:58.299Z,6.25
2023-05-11T12:50:25.429Z,6.63
2023-05-11T12:52:52.885Z,6.20
2023-05-11T12:55:30.767Z,6.70
2023-05-11T12:58:15.903Z,6.80
2023-05-11T13:00:57.933Z,6.80
2023-05-11T13:03:28.032Z,6.35
2023-05-11T13:06:12.586Z,6.53
2023-05-11T13:08:44.638Z,6.43
2023-05-11T13:11:27.377Z,6.40
2023-05-11T13:13:57.055Z,6.13
2023-05-11T13:16:32.873Z,5.70
2023-05-11T13:19:07.971Z,5.65
2023-05-11T13:21:35.240Z,5.55
2023-05-11T13:24:03.981Z,5.70
2023-05-11T13:26:31.848Z,4.80
2023-05-11T13:29:10.284Z,4.78
2023-05-11T13:31:45.889Z,4.45
2023-05-11T13:34:13.218Z,4.40
2023-05-11T13:36:40.974Z,4.43
2023-05-11T13:39:08.364Z,3.90
2023-05-11T13:41:35.688Z,4.55
2023-05-11T13:44:03.393Z,4.10
2023-05-11T13:46:30.435Z,3.88
2023-05-11T13:48:59.643Z,3.60
2023-05-11T13:51:27.354Z,3.80
2023-05-11T13:53:54.614Z,3.47
2023-05-11T13:56:22.184Z,3.10
2023-05-11T13:58:49.390Z,3.33
2023-05-11T14:01:17.186Z,3.28
2023-05-11T14:03:44.375Z,2.92
2023-05-11T14:06:11.600Z,2.30
2023-05-11T14:08:39.030Z,2.20
2023-05-11T14:11:06.285Z,2.42
2023-05-11T14:13:33.521Z,2.20
2023-05-11T14:16:01.578Z,2.22
2023-05-11T14:18:29.092Z,2.72
2023-05-11T14:20:57.065Z,3.00
2023-05-11T14:23:24.280Z,2.97
2023-05-11T14:25:51.477Z,3.17
2023-05-11T14:28:18.601Z,2.88
2023-05-11T14:30:45.803Z,2.50
2023-05-11T14:33:13.009Z,2.53
2023-05-11T14:35:40.229Z,2.53
2023-05-11T14:38:07.408Z,2.42
2023-05-11T14:40:34.514Z,2.30
2023-05-11T14:43:01.746Z,2.60
2023-05-11T14:45:28.920Z,2.25
2023-05-11T14:47:56.329Z,2.30
2023-05-11T14:50:23.628Z,2.63
2023-05-11T14:52:50.848Z,2.67
2023-05-11T14:55:18.224Z,2.78
2023-05-11T14:57:45.637Z,2.60
2023-05-11T15:00:13.470Z,2.60
2023-05-11T15:02:41.116Z,2.80
2023-05-11T15:05:08.899Z,2.70
2023-05-11T15:07:36.822Z,3.20
2023-05-11T15:10:04.492Z,3.22
2023-05-11T15:12:31.728Z,3.20
2023-05-11T15:14:58.795Z,3.40
2023-05-11T15:17:26.908Z,3.60
2023-05-11T15:19:54.158Z,3.30
2023-05-11T15:22:22.543Z,2.80
2023-05-11T15:24:49.822Z,3.00
2023-05-11T15:27:16.891Z,3.08
2023-05-11T15:29:43.960Z,2.50
2023-05-11T15:32:15.268Z,2.85
2023-05-11T15:34:58.008Z,2.33
2023-05-11T15:37:27.004Z,2.60
2023-05-11T15:39:54.297Z,2.92
2023-05-11T15:42:21.598Z,2.67
2023-05-11T15:44:48.803Z,3.25
2023-05-11T15:47:16.308Z,3.03
2023-05-11T15:49:43.624Z,3.25
2023-05-11T15:52:10.784Z,3.42
2023-05-11T15:54:37.815Z,3.20
2023-05-11T15:57:05.428Z,2.90
2023-05-11T15:59:35.067Z,2.70
2023-05-11T16:02:02.393Z,2.55
2023-05-11T16:04:29.559Z,2.63
2023-05-11T16:06:58.741Z,2.28
2023-05-11T16:09:26.230Z,2.20
2023-05-11T16:11:53.405Z,2.28
2023-05-11T16:14:20.415Z,2.97
2023-05-11T16:16:47.600Z,3.42
2023-05-11T16:19:14.883Z,3.53
2023-05-11T16:21:43.705Z,3.75
2023-05-11T16:24:10.952Z,3.33
2023-05-11T16:26:38.098Z,3.28
2023-05-11T16:29:05.917Z,3.42
2023-05-11T16:31:32.961Z,3.53
2023-05-11T16:34:00.265Z,4.07
2023-05-11T16:36:29.185Z,3.60
2023-05-11T16:38:56.245Z,3.72
2023-05-11T16:41:25.261Z,3.90
2023-05-11T16:43:52.444Z,3.70
2023-05-11T16:46:19.679Z,4.53
2023-05-11T16:48:46.912Z,5.10
2023-05-11T16:51:14.168Z,5.43
2023-05-11T16:53:42.001Z,6.18
2023-05-11T16:56:09.181Z,6.50
2023-05-11T16:58:36.185Z,6.47
2023-05-11T17:01:03.268Z,6.53
2023-05-11T17:03:30.714Z,6.82
2023-05-11T17:05:58.189Z,7.32
2023-05-11T17:08:25.643Z,7.70
2023-05-11T17:10:52.737Z,7.22
2023-05-11T17:13:20.191Z,7.07
2023-05-11T17:15:47.358Z,7.20
2023-05-11T17:18:14.618Z,7.10
2023-05-11T17:20:42.046Z,6.90
2023-05-11T17:23:09.230Z,7.80
2023-05-11T17:25:36.386Z,8.00
2023-05-11T17:28:03.721Z,7.88
2023-05-11T17:30:47.490Z,7.53
2023-05-11T17:33:16.365Z,7.95
2023-05-11T17:35:43.709Z,7.95
2023-05-11T17:38:10.922Z,8.38
2023-05-11T17:40:38.322Z,8.45
2023-05-11T17:43:05.563Z,8.43
2023-05-11T17:45:32.600Z,8.88
2023-05-11T17:47:59.893Z,9.15
2023-05-11T17:50:27.152Z,9.23
2023-05-11T17:52:54.605Z,9.57
2023-05-11T17:55:21.919Z,8.85
2023-05-11T17:57:51.597Z,9.05
2023-05-11T18:00:20.177Z,9.32
2023-05-11T18:02:51.439Z,10.07
2023-05-11T18:05:18.651Z,9.90
2023-05-11T18:07:45.745Z,9.85
2023-05-11T18:10:12.940Z,9.80
2023-05-11T18:12:40.055Z,10.77
2023-05-11T18:15:07.777Z,9.73
2023-05-11T18:17:34.904Z,9.68
2023-05-11T18:20:02.476Z,9.93
2023-05-11T18:22:30.821Z,10.40
2023-05-11T18:24:58.067Z,9.95
2023-05-11T18:27:25.739Z,10.82
2023-05-11T18:29:53.486Z,10.15
2023-05-11T18:32:20.797Z,9.43
2023-05-11T18:34:48.068Z,10.55
2023-05-11T18:37:16.159Z,9.75
2023-05-11T18:39:43.474Z,10.13
2023-05-11T18:42:10.868Z,9.88
2023-05-11T18:44:38.526Z,10.27
2023-05-11T18:47:06.291Z,9.68
2023-05-11T18:49:33.641Z,10.07
2023-05-11T18:52:01.015Z,10.55
2023-05-11T18:54:28.184Z,10.95
2023-05-11T18:56:55.288Z,10.98
2023-05-11T18:59:22.524Z,12.20
2023-05-11T19:01:49.832Z,11.48
2023-05-11T19:04:19.713Z,12.65
2023-05-11T19:06:47.448Z,11.50
2023-05-11T19:09:14.427Z,12.57
2023-05-11T19:11:41.970Z,12.02
2023-05-11T19:14:12.296Z,12.38
2023-05-11T19:16:39.359Z,12.45
2023-05-11T19:19:07.062Z,12.85
2023-05-11T19:21:39.772Z,12.48
2023-05-11T19:24:07.967Z,12.07
2023-05-11T19:26:35.570Z,12.38
2023-05-11T19:29:02.855Z,12.65
2023-05-11T19:31:31.355Z,12.95
2023-05-11T19:33:59.099Z,13.80
2023-05-11T19:36:27.206Z,13.23
2023-05-11T19:38:54.748Z,12.75
2023-05-11T19:41:22.427Z,13.18
2023-05-11T19:43:49.518Z,12.98
2023-05-11T19:46:16.620Z,13.15
2023-05-11T19:48:43.783Z,13.07
2023-05-11T19:51:11.287Z,13.55
2023-05-11T19:53:38.378Z,14.07
2023-05-11T19:56:06.686Z,14.25
2023-05-11T19:58:33.933Z,14.32
2023-05-11T20:01:01.113Z,14.50
2023-05-11T20:03:28.981Z,14.88
2023-05-11T20:05:56.415Z,14.80
2023-05-11T20:08:23.800Z,14.30
2023-05-11T20:10:50.866Z,14.18
2023-05-11T20:13:17.958Z,13.43
2023-05-11T20:15:45.261Z,12.65
2023-05-11T20:18:12.405Z,13.10
2023-05-11T20:20:39.499Z,12.93
2023-05-11T20:23:06.643Z,11.90
2023-05-11T20:25:33.954Z,11.98
2023-05-11T20:28:01.153Z,10.95
2023-05-11T20:30:28.347Z,11.05
2023-05-11T20:35:25.403Z,9.95
2023-05-11T20:37:52.904Z,10.45
2023-05-11T20:40:20.498Z,9.48
2023-05-11T20:42:47.701Z,9.88
2023-05-11T20:45:15.284Z,9.45
2023-05-11T20:47:42.634Z,9.88
2023-05-11T20:50:10.238Z,9.02
2023-05-11T20:52:37.597Z,9.00
2023-05-11T20:55:05.801Z,8.55
2023-05-11T20:57:33.042Z,9.02
2023-05-11T21:02:30.606Z,9.10
2023-05-11T21:05:01.856Z,9.45
2023-05-11T21:07:29.725Z,10.05
2023-05-11T21:09:56.974Z,9.85
2023-05-11T21:12:24.151Z,11.00
2023-05-11T21:14:56.700Z,11.18
2023-05-11T21:17:24.203Z,11.32
2023-05-11T21:19:53.123Z,12.55
2023-05-11T21:22:20.220Z,12.82
2023-05-11T21:24:47.549Z,12.30
2023-05-11T21:27:15.036Z,12.43
2023-05-11T21:29:42.204Z,12.75
2023-05-11T21:32:10.146Z,13.57
2023-05-11T21:34:37.334Z,12.75
2023-05-11T21:37:04.870Z,13.57
2023-05-11T21:39:31.991Z,13.20
2023-05-11T21:41:59.214Z,12.82
2023-05-11T21:44:26.244Z,13.20
2023-05-11T21:46:53.732Z,13.48
2023-05-11T21:49:21.073Z,12.85
2023-05-11T21:51:49.066Z,13.15
2023-05-11T21:54:16.948Z,12.88
2023-05-11T21:56:45.103Z,13.82
2023-05-11T21:59:12.070Z,13.02
2023-05-11T22:01:39.126Z,13.55
2023-05-11T22:04:06.340Z,13.93
2023-05-11T22:06:33.708Z,14.77
2023-05-11T22:09:00.688Z,14.07
2023-05-11T22:11:27.818Z,13.25
2023-05-11T22:13:54.962Z,13.20
2023-05-11T22:16:22.059Z,13.00
2023-05-11T22:18:49.369Z,12.77
2023-05-11T22:21:16.508Z,13.02
2023-05-11T22:23:43.654Z,13.18
2023-05-11T22:26:10.901Z,11.95
2023-05-11T22:28:38.238Z,12.82
2023-05-11T22:31:05.531Z,12.48
2023-05-11T22:33:32.775Z,12.50
2023-05-11T22:35:59.837Z,13.25
2023-05-11T22:38:27.054Z,12.75
2023-05-11T22:40:54.190Z,14.38
2023-05-11T22:43:21.345Z,13.98
2023-05-11T22:45:48.377Z,14.63
2023-05-11T22:48:15.476Z,15.43
2023-05-11T22:50:47.467Z,16.42
2023-05-11T22:53:14.791Z,16.83
2023-05-11T22:55:42.446Z,17.50
2023-05-11T22:58:09.481Z,16.73
2023-05-11T23:00:37.200Z,16.15
2023-05-11T23:03:04.669Z,16.90
2023-05-11T23:05:31.858Z,16.35
2023-05-11T23:07:59.934Z,16.45
2023-05-11T23:10:28.501Z,15.65
2023-05-11T23:12:56.322Z,15.60
2023-05-11T23:15:23.345Z,15.57
2023-05-11T23:17:50.515Z,15.20
2023-05-11T23:20:17.827Z,13.63
2023-05-11T23:22:44.900Z,14.40
2023-05-11T23:25:12.117Z,13.50
2023-05-11T23:27:39.113Z,13.63
2023-05-11T23:30:07.110Z,12.98
2023-05-11T23:32:34.211Z,13.68
2023-05-11T23:35:01.324Z,12.15
2023-05-11T23:37:28.336Z,11.68
2023-05-11T23:39:55.414Z,11.63
2023-05-11T23:42:22.596Z,11.60
2023-05-11T23:44:49.753Z,11.40
2023-05-11T23:47:16.960Z,11.30
2023-05-11T23:49:44.230Z,10.98
2023-05-11T23:52:11.381Z,10.63
2023-05-11T23:54:38.523Z,9.73
2023-05-11T23:57:05.797Z,10.48
2023-05-11T23:59:32.751Z,10.07
